createdAt,value
2023-01-10T00:00:15.999Z,5.43
2023-01-10T00:03:21.293Z,6.17
2023-01-10T00:06:26.937Z,5.73
2023-01-10T00:09:30.284Z,5.30
2023-01-10T00:12:52.656Z,5.53
2023-01-10T00:15:56.996Z,6.63
2023-01-10T00:19:00.285Z,6.27
2023-01-10T00:22:14.640Z,4.23
2023-01-10T00:25:19.913Z,5.87
2023-01-10T00:28:24.335Z,5.00
2023-01-10T00:31:27.434Z,5.80
2023-01-10T00:34:31.113Z,7.23
2023-01-10T00:37:35.174Z,6.67
2023-01-10T00:40:38.155Z,6.23
2023-01-10T00:43:59.661Z,6.47
2023-01-10T00:47:02.830Z,8.90
2023-01-10T00:50:08.513Z,6.80
2023-01-10T00:53:11.568Z,7.47
2023-01-10T00:56:17.320Z,6.37
2023-01-10T00:59:21.861Z,6.57
2023-01-10T01:02:25.121Z,6.20
2023-01-10T01:05:28.623Z,6.50
2023-01-10T01:08:31.747Z,7.27
2023-01-10T01:11:36.640Z,8.27
2023-01-10T01:14:41.060Z,5.63
2023-01-10T01:17:44.311Z,7.37
2023-01-10T01:20:48.185Z,8.50
2023-01-10T01:23:51.892Z,6.10
2023-01-10T01:26:56.605Z,6.10
2023-01-10T01:30:01.160Z,7.10
2023-01-10T01:33:04.449Z,5.13
2023-01-10T01:36:13.355Z,6.43
2023-01-10T01:39:16.387Z,6.73
2023-01-10T01:42:28.653Z,6.43
2023-01-10T01:45:39.694Z,8.20
2023-01-10T01:48:44.587Z,5.97
2023-01-10T01:51:53.115Z,7.23
2023-01-10T01:55:00.211Z,7.10
2023-01-10T01:58:08.146Z,8.17
2023-01-10T02:01:16.101Z,8.10
2023-01-10T02:04:23.362Z,6.70
2023-01-10T02:07:30.612Z,8.40
2023-01-10T02:10:40.381Z,6.73
2023-01-10T02:13:45.647Z,7.53
2023-01-10T02:16:50.220Z,7.03
2023-01-10T02:20:00.079Z,6.50
2023-01-10T02:23:50.263Z,5.90
2023-01-10T02:27:16.013Z,7.20
2023-01-10T02:30:52.040Z,7.23
2023-01-10T02:34:03.300Z,9.17
2023-01-10T02:37:15.399Z,7.37
2023-01-10T02:40:25.635Z,8.70
2023-01-10T02:43:41.281Z,7.40
2023-01-10T02:46:47.251Z,8.60
2023-01-10T02:49:53.335Z,6.93
2023-01-10T02:53:06.510Z,8.00
2023-01-10T02:57:02.997Z,6.90
2023-01-10T03:00:33.795Z,7.70
2023-01-10T03:03:44.451Z,8.37
2023-01-10T03:06:59.206Z,7.57
2023-01-10T03:10:08.685Z,8.77
2023-01-10T03:13:18.075Z,8.63
2023-01-10T03:16:28.421Z,7.03
2023-01-10T03:19:42.389Z,9.07
2023-01-10T03:22:48.745Z,8.33
2023-01-10T03:25:58.228Z,13.33
2023-01-10T03:29:11.088Z,8.43
2023-01-10T03:32:18.512Z,6.97
2023-01-10T03:35:24.425Z,7.50
2023-01-10T03:38:38.544Z,9.80
2023-01-10T03:41:51.933Z,7.53
2023-01-10T03:45:02.955Z,12.23
2023-01-10T03:48:08.252Z,9.83
2023-01-10T03:51:12.825Z,14.77
2023-01-10T03:54:18.597Z,8.57
2023-01-10T03:57:24.170Z,11.03
2023-01-10T04:00:27.343Z,11.67
2023-01-10T04:03:30.355Z,9.33
2023-01-10T04:06:33.311Z,10.13
2023-01-10T04:09:37.658Z,10.87
2023-01-10T04:12:40.596Z,13.67
2023-01-10T04:15:43.764Z,11.73
2023-01-10T04:18:46.771Z,9.57
2023-01-10T04:21:50.179Z,9.20
2023-01-10T04:24:54.764Z,11.53
2023-01-10T04:27:57.802Z,18.23
2023-01-10T04:31:00.803Z,13.57
2023-01-10T04:34:04.172Z,14.07
2023-01-10T04:37:07.265Z,13.77
2023-01-10T04:40:17.055Z,12.30
2023-01-10T04:43:20.380Z,20.50
2023-01-10T04:46:23.827Z,15.57
2023-01-10T04:49:26.888Z,17.20
2023-01-10T04:52:30.255Z,16.67
2023-01-10T04:55:35.287Z,16.23
2023-01-10T04:58:39.525Z,17.97
2023-01-10T05:01:42.984Z,17.13
2023-01-10T05:04:46.207Z,16.63
2023-01-10T05:07:49.644Z,16.83
2023-01-10T05:10:53.984Z,10.47
2023-01-10T05:14:08.084Z,10.83
2023-01-10T05:17:13.842Z,19.80
2023-01-10T05:20:19.079Z,19.47
2023-01-10T05:23:25.323Z,16.87
2023-01-10T05:26:32.522Z,22.10
2023-01-10T05:29:36.695Z,18.37
2023-01-10T05:32:41.665Z,20.53
2023-01-10T05:35:44.615Z,17.03
2023-01-10T05:38:47.839Z,20.07
2023-01-10T05:42:08.137Z,17.03
2023-01-10T05:45:12.488Z,21.13
2023-01-10T05:48:15.483Z,19.10
2023-01-10T05:51:18.565Z,15.07
2023-01-10T05:54:24.265Z,19.93
2023-01-10T05:57:28.706Z,26.77
2023-01-10T06:00:31.825Z,16.33
2023-01-10T06:03:34.832Z,19.57
2023-01-10T06:06:38.024Z,18.50
2023-01-10T06:09:42.989Z,18.83
2023-01-10T06:12:49.832Z,21.60
2023-01-10T06:15:54.657Z,16.17
2023-01-10T06:18:57.845Z,20.53
2023-01-10T06:22:01.096Z,21.40
2023-01-10T06:25:10.115Z,21.17
2023-01-10T06:28:17.131Z,16.73
2023-01-10T06:31:22.466Z,17.93
2023-01-10T06:34:37.628Z,22.57
2023-01-10T06:37:50.188Z,18.50
2023-01-10T06:40:55.867Z,20.30
2023-01-10T06:44:00.556Z,16.43
2023-01-10T06:47:03.778Z,20.10
2023-01-10T06:50:11.076Z,17.53
2023-01-10T06:53:14.799Z,18.00
2023-01-10T06:56:22.444Z,21.43
2023-01-10T06:59:27.117Z,15.97
2023-01-10T07:02:30.619Z,17.50
2023-01-10T07:05:36.305Z,20.83
2023-01-10T07:08:40.386Z,18.83
2023-01-10T07:11:45.975Z,23.30
2023-01-10T07:14:50.278Z,16.23
2023-01-10T07:17:58.434Z,24.03
2023-01-10T07:21:09.458Z,16.37
2023-01-10T07:24:14.348Z,21.63
2023-01-10T07:27:17.887Z,27.13
2023-01-10T07:30:25.239Z,24.47
2023-01-10T07:33:31.176Z,26.93
2023-01-10T07:36:37.382Z,23.83
2023-01-10T07:39:42.277Z,18.57
2023-01-10T07:42:45.373Z,20.93
2023-01-10T07:45:49.740Z,21.43
2023-01-10T07:48:55.321Z,23.13
2023-01-10T07:51:58.296Z,19.37
2023-01-10T07:55:01.277Z,20.97
2023-01-10T07:58:04.288Z,23.60
2023-01-10T08:01:08.805Z,23.80
2023-01-10T08:04:11.830Z,19.10
2023-01-10T08:07:14.788Z,24.63
2023-01-10T08:10:18.939Z,26.77
2023-01-10T08:13:22.107Z,24.97
2023-01-10T08:16:26.562Z,21.50
2023-01-10T08:19:30.193Z,23.63
2023-01-10T08:22:33.213Z,24.40
2023-01-10T08:25:38.720Z,19.40
2023-01-10T08:28:42.520Z,23.17
2023-01-10T08:31:46.803Z,22.70
2023-01-10T08:34:49.840Z,31.13
2023-01-10T08:37:52.893Z,21.13
2023-01-10T08:40:58.091Z,22.27
2023-01-10T08:44:01.467Z,20.83
2023-01-10T08:47:05.819Z,20.33
2023-01-10T08:50:11.144Z,24.97
2023-01-10T08:53:14.674Z,25.13
2023-01-10T08:56:17.855Z,27.33
2023-01-10T08:59:20.955Z,25.83
2023-01-10T09:02:25.373Z,23.07
2023-01-10T09:05:31.959Z,27.87
2023-01-10T09:08:35.318Z,26.53
2023-01-10T09:11:40.523Z,25.03
2023-01-10T09:14:44.797Z,26.23
2023-01-10T09:17:49.812Z,24.77
2023-01-10T09:20:54.627Z,25.67
2023-01-10T09:23:57.771Z,20.43
2023-01-10T09:27:01.592Z,17.67
2023-01-10T09:30:10.780Z,25.70
2023-01-10T09:33:15.699Z,20.70
2023-01-10T09:36:18.718Z,19.10
2023-01-10T09:39:21.971Z,21.27
2023-01-10T09:42:40.613Z,22.27
2023-01-10T09:45:55.131Z,20.07
2023-01-10T09:49:09.350Z,17.47
2023-01-10T09:52:23.320Z,19.07
2023-01-10T09:55:32.952Z,19.80
2023-01-10T09:58:38.468Z,16.23
2023-01-10T10:01:41.612Z,17.37
2023-01-10T10:05:09.734Z,17.57
2023-01-10T10:08:18.215Z,21.30
2023-01-10T10:11:57.910Z,17.20
2023-01-10T10:15:15.454Z,19.23
2023-01-10T10:18:32.568Z,23.60
2023-01-10T10:21:47.013Z,15.50
2023-01-10T10:25:05.741Z,24.50
2023-01-10T10:28:31.830Z,23.13
2023-01-10T10:31:55.533Z,27.80
2023-01-10T10:35:03.401Z,23.73
2023-01-10T10:38:20.828Z,18.07
2023-01-10T10:41:33.673Z,17.10
2023-01-10T10:44:42.129Z,17.27
2023-01-10T10:47:52.270Z,20.07
2023-01-10T10:51:05.761Z,16.80
2023-01-10T10:54:14.571Z,15.73
2023-01-10T10:57:35.405Z,19.70
2023-01-10T11:00:42.258Z,18.37
2023-01-10T11:03:49.981Z,15.47
2023-01-10T11:06:54.007Z,25.87
2023-01-10T11:10:11.006Z,20.77
2023-01-10T11:13:25.254Z,15.77
2023-01-10T11:16:32.281Z,17.80
2023-01-10T11:19:37.779Z,20.90
2023-01-10T11:22:48.321Z,20.90
2023-01-10T11:25:52.723Z,19.33
2023-01-10T11:29:18.057Z,15.77
2023-01-10T11:32:27.336Z,13.93
2023-01-10T11:35:33.721Z,16.67
2023-01-10T11:38:40.197Z,21.13
2023-01-10T11:41:44.517Z,16.60
2023-01-10T11:44:47.550Z,19.20
2023-01-10T11:47:54.653Z,19.77
2023-01-10T11:50:57.797Z,13.33
2023-01-10T11:54:05.388Z,17.20
2023-01-10T11:57:17.155Z,13.30
2023-01-10T12:00:24.596Z,14.07
2023-01-10T12:03:31.001Z,11.60
2023-01-10T12:06:37.018Z,19.83
2023-01-10T12:09:45.471Z,16.30
2023-01-10T12:12:57.266Z,12.37
2023-01-10T12:16:20.148Z,19.63
2023-01-10T12:19:23.214Z,12.90
2023-01-10T12:22:32.112Z,18.27
2023-01-10T12:25:39.173Z,16.63
2023-01-10T12:28:49.106Z,9.83
2023-01-10T12:31:56.932Z,19.67
2023-01-10T12:35:04.953Z,11.20
2023-01-10T12:38:24.621Z,13.37
2023-01-10T12:41:53.379Z,17.50
2023-01-10T12:45:04.969Z,14.40
2023-01-10T12:48:18.506Z,16.10
2023-01-10T12:51:26.368Z,18.03
2023-01-10T12:54:31.603Z,16.80
2023-01-10T12:57:46.467Z,9.00
2023-01-10T13:00:58.896Z,19.03
2023-01-10T13:04:07.457Z,18.63
2023-01-10T13:07:13.631Z,14.13
2023-01-10T13:10:22.491Z,20.93
2023-01-10T13:13:35.186Z,15.87
2023-01-10T13:17:16.513Z,14.03
2023-01-10T13:20:38.966Z,10.93
2023-01-10T13:23:50.276Z,11.17
2023-01-10T13:26:56.764Z,13.53
2023-01-10T13:30:00.420Z,14.80
2023-01-10T13:33:08.791Z,11.40
2023-01-10T13:36:18.598Z,9.90
2023-01-10T13:39:29.076Z,15.30
2023-01-10T13:42:51.752Z,18.53
2023-01-10T13:46:46.740Z,12.10
2023-01-10T13:49:52.848Z,16.47
2023-01-10T13:52:56.537Z,12.27
2023-01-10T13:56:02.713Z,13.80
2023-01-10T13:59:33.093Z,17.00
2023-01-10T14:02:45.582Z,11.23
2023-01-10T14:05:50.405Z,15.73
2023-01-10T14:08:56.418Z,16.83
2023-01-10T14:12:03.971Z,15.73
2023-01-10T14:15:23.173Z,17.00
2023-01-10T14:18:35.383Z,16.20
2023-01-10T14:21:45.745Z,11.33
2023-01-10T14:24:53.653Z,17.17
2023-01-10T14:27:59.005Z,13.40
2023-01-10T14:31:05.774Z,15.00
2023-01-10T14:34:12.839Z,8.47
2023-01-10T14:37:27.446Z,14.70
2023-01-10T14:40:41.061Z,10.87
2023-01-10T14:43:52.041Z,17.60
2023-01-10T14:46:58.007Z,11.47
2023-01-10T14:50:02.035Z,14.33
2023-01-10T14:53:26.547Z,11.57
2023-01-10T14:56:38.302Z,14.67
2023-01-10T14:59:41.288Z,12.73
2023-01-10T15:02:46.049Z,9.03
2023-01-10T15:05:52.208Z,13.47
2023-01-10T15:09:03.691Z,22.73
2023-01-10T15:12:12.407Z,12.70
2023-01-10T15:15:20.553Z,16.17
2023-01-10T15:18:36.238Z,18.17
2023-01-10T15:21:44.105Z,16.17
2023-01-10T15:25:01.847Z,13.00
2023-01-10T15:28:16.071Z,11.60
2023-01-10T15:31:20.841Z,15.70
2023-01-10T15:34:30.116Z,13.07
2023-01-10T15:37:40.815Z,16.47
2023-01-10T15:40:45.547Z,11.87
2023-01-10T15:43:50.234Z,15.63
2023-01-10T15:46:58.370Z,17.37
2023-01-10T15:50:01.458Z,13.70
2023-01-10T15:53:10.903Z,9.70
2023-01-10T15:56:20.780Z,14.10
2023-01-10T15:59:28.397Z,17.07
2023-01-10T16:02:36.020Z,13.20
2023-01-10T16:05:39.075Z,15.83
2023-01-10T16:08:42.263Z,13.27
2023-01-10T16:12:08.662Z,10.10
2023-01-10T16:15:19.072Z,11.80
2023-01-10T16:18:22.967Z,14.57
2023-01-10T16:21:29.630Z,13.10
2023-01-10T16:24:35.460Z,13.97
2023-01-10T16:27:39.891Z,10.87
2023-01-10T16:30:46.848Z,7.83
2023-01-10T16:33:50.334Z,10.10
2023-01-10T16:36:53.718Z,15.10
2023-01-10T16:39:57.661Z,11.37
2023-01-10T16:43:21.608Z,10.70
2023-01-10T16:46:25.766Z,14.03
2023-01-10T16:49:32.393Z,16.93
2023-01-10T16:52:35.839Z,14.23
2023-01-10T16:55:42.254Z,12.40
2023-01-10T16:58:48.263Z,12.10
2023-01-10T17:01:55.392Z,15.17
2023-01-10T17:04:59.387Z,10.77
2023-01-10T17:08:02.747Z,13.33
2023-01-10T17:11:12.347Z,9.20
2023-01-10T17:14:18.266Z,15.90
2023-01-10T17:17:21.377Z,12.30
2023-01-10T17:20:27.984Z,13.30
2023-01-10T17:23:31.953Z,13.87
2023-01-10T17:26:35.033Z,8.77
2023-01-10T17:29:41.974Z,13.33
2023-01-10T17:32:45.119Z,13.47
2023-01-10T17:35:48.319Z,14.00
2023-01-10T17:38:56.317Z,12.97
2023-01-10T17:42:02.616Z,19.70
2023-01-10T17:45:11.086Z,14.40
2023-01-10T17:48:16.969Z,14.00
2023-01-10T17:51:21.625Z,9.97
2023-01-10T17:54:24.870Z,10.93
2023-01-10T17:57:31.003Z,11.63
2023-01-10T18:00:35.419Z,14.87
2023-01-10T18:03:39.442Z,11.97
2023-01-10T18:06:42.521Z,13.37
2023-01-10T18:09:47.888Z,10.17
2023-01-10T18:12:53.516Z,10.27
2023-01-10T18:15:58.372Z,14.57
2023-01-10T18:19:01.360Z,15.53
2023-01-10T18:22:30.499Z,19.80
2023-01-10T18:25:39.165Z,12.77
2023-01-10T18:28:45.417Z,11.37
2023-01-10T18:31:49.767Z,10.73
2023-01-10T18:34:52.946Z,10.73
2023-01-10T18:37:57.329Z,16.80
2023-01-10T18:41:00.491Z,13.03
2023-01-10T18:44:03.515Z,16.37
2023-01-10T18:47:08.923Z,11.30
2023-01-10T18:50:12.546Z,7.40
2023-01-10T18:53:19.082Z,14.57
2023-01-10T18:56:25.791Z,11.37
2023-01-10T18:59:31.641Z,17.93
2023-01-10T19:02:36.374Z,13.07
2023-01-10T19:05:39.753Z,15.27
2023-01-10T19:08:43.770Z,14.10
2023-01-10T19:11:47.274Z,12.77
2023-01-10T19:14:50.278Z,16.37
2023-01-10T19:17:58.355Z,14.20
2023-01-10T19:21:01.704Z,18.33
2023-01-10T19:24:10.312Z,13.10
2023-01-10T19:27:13.337Z,10.67
2023-01-10T19:30:19.324Z,18.57
2023-01-10T19:33:23.685Z,15.60
2023-01-10T19:36:27.003Z,16.90
2023-01-10T19:39:30.485Z,17.17
2023-01-10T19:42:35.334Z,15.77
2023-01-10T19:45:42.130Z,15.47
2023-01-10T19:48:46.512Z,13.93
2023-01-10T19:51:54.793Z,16.77
2023-01-10T19:55:02.158Z,16.37
2023-01-10T19:58:05.500Z,9.93
2023-01-10T20:01:20.628Z,10.33
2023-01-10T20:04:28.628Z,19.43
2023-01-10T20:07:37.536Z,17.00
2023-01-10T20:10:43.771Z,16.87
2023-01-10T20:13:55.476Z,11.40
2023-01-10T20:16:58.570Z,12.17
2023-01-10T20:20:08.132Z,15.30
2023-01-10T20:23:18.824Z,23.03
2023-01-10T20:26:30.828Z,18.30
2023-01-10T20:29:34.352Z,16.90
2023-01-10T20:32:37.565Z,17.63
2023-01-10T20:35:44.654Z,12.20
2023-01-10T20:38:48.834Z,11.00
2023-01-10T20:41:52.257Z,13.27
2023-01-10T20:44:55.394Z,10.80
2023-01-10T20:47:58.398Z,14.17
2023-01-10T20:51:02.976Z,13.53
2023-01-10T20:54:08.481Z,17.23
2023-01-10T20:57:13.151Z,12.20
2023-01-10T21:00:17.984Z,11.63
2023-01-10T21:03:23.551Z,10.70
2023-01-10T21:06:28.202Z,13.63
2023-01-10T21:09:31.244Z,15.23
2023-01-10T21:12:34.375Z,14.83
2023-01-10T21:15:40.680Z,14.07
2023-01-10T21:18:44.888Z,13.10
2023-01-10T21:21:50.884Z,11.80
2023-01-10T21:24:54.099Z,14.77
2023-01-10T21:27:57.047Z,10.43
2023-01-10T21:31:00.522Z,11.53
2023-01-10T21:34:03.518Z,16.00
2023-01-10T21:37:07.903Z,13.67
2023-01-10T21:40:12.424Z,12.77
2023-01-10T21:43:15.556Z,13.33
2023-01-10T21:46:18.800Z,10.93
2023-01-10T21:49:22.444Z,14.87
2023-01-10T21:52:26.911Z,10.63
2023-01-10T21:55:29.972Z,15.07
2023-01-10T21:58:32.937Z,9.83
2023-01-10T22:01:35.958Z,10.83
2023-01-10T22:04:39.110Z,15.43
2023-01-10T22:07:44.887Z,7.67
2023-01-10T22:10:47.849Z,13.50
2023-01-10T22:13:51.887Z,10.63
2023-01-10T22:16:55.343Z,11.03
2023-01-10T22:19:58.287Z,14.47
2023-01-10T22:23:02.850Z,11.53
2023-01-10T22:26:08.907Z,8.70
2023-01-10T22:29:11.989Z,12.63
2023-01-10T22:32:15.316Z,9.27
2023-01-10T22:35:18.609Z,10.37
2023-01-10T22:38:22.977Z,9.57
2023-01-10T22:41:27.435Z,12.27
2023-01-10T22:44:30.719Z,14.40
2023-01-10T22:47:36.636Z,11.13
2023-01-10T22:50:39.586Z,10.03
2023-01-10T22:53:43.976Z,12.53
2023-01-10T22:56:48.059Z,13.67
2023-01-10T22:59:51.115Z,10.73
2023-01-10T23:02:54.276Z,11.90
2023-01-10T23:05:58.175Z,14.30
2023-01-10T23:09:02.544Z,9.93
2023-01-10T23:12:07.061Z,9.93
2023-01-10T23:15:11.505Z,9.47
2023-01-10T23:18:16.440Z,9.67
2023-01-10T23:21:19.791Z,13.07
2023-01-10T23:24:29.374Z,14.80
2023-01-10T23:27:32.467Z,10.90
2023-01-10T23:30:35.564Z,10.70
2023-01-10T23:33:38.930Z,8.60
2023-01-10T23:36:41.924Z,8.90
2023-01-10T23:39:46.236Z,9.07
2023-01-10T23:42:49.197Z,8.57
2023-01-10T23:45:52.525Z,12.37
2023-01-10T23:48:55.524Z,11.90
2023-01-10T23:51:58.482Z,8.90
2023-01-10T23:55:03.315Z,13.00
2023-01-10T23:58:07.011Z,10.63
